Maui, HI

12:05 AM HST on September 22, 2014 (GMT -1000)
Lahaina | Change Station
CLOSE
Current Station
Airport
Location: Lahaina,
Elevation: 256 ft
Nearby Weather Stations

Elev 256 ft 20.96 °N, 156.67 °W | Updated 6 hours ago

Clear
Clear
75 °F
Feels Like 75 °F
N
3
Wind Variable Wind from NNW
Gusts 5 mph

Today
High -- | Low -- °F
--% Chance of Precip.
Yesterday
High -- | Low -- °F
Precip. -- in
6:14 AM 6:21 PM
Waning Crescent, 3% visible
Pressure 29.93 in
Visibility 15.0 miles
Clouds Few 2500 ft
Few 4500 ft
Scattered Clouds 10000 ft
Dew Point 68 °F
Humidity 77%
Rainfall 0.00 in
Snow Depth Not available.
UV 0 out of 12
Pollen Not available.
Air Quality Not available.
Flu Activity Not available.
METAR PHJH 220345Z 09015G21KT 15SM FEW025 FEW045 SCT100 29/18 A2993 RMK LAST

More Conditions Fewer Conditions

Pressure 29.93 in
Visibility 15.0 miles
Clouds Few 2500 ft
Few 4500 ft
Scattered Clouds 10000 ft
Dew Point 68 °F
Humidity 77%
Rainfall 0.00 in
Snow Depth Not available.
UV 0 out of 12
Pollen Not available.
Air Quality Not available.
Flu Activity Not available.
METAR PHJH 220345Z 09015G21KT 15SM FEW025 FEW045 SCT100 29/18 A2993 RMK LAST

More Conditions Fewer Conditions

10-Day Weather Forecast

Almanac

Astronomy

Sep. 22, 2014 Rise Set
Actual Time 6:14 AM HST 6:21 PM HST
Civil Twilight 5:52 AM HST 6:44 PM HST
Nautical Twilight 5:26 AM HST 7:09 PM HST
Astronomical Twilight 5:01 AM HST 7:35 PM HST
Moon 5:00 AM HST 5:31 PM HST
Length of Visible Light 12h 51m
Length of Day
12h 07m
Tomorrow will be 1m 11s shorter.
Waning Crescent, 3% of the Moon is Illuminated
Today
Waning Crescent
Sep 24
New
Oct 1
First Quarter
Oct 8
Full
Oct 15
Last Quarter

Today's Extremes

State Highs State Lows

Community

WunderPhotos

Upload Photos

1,755,403 photos uploaded!

Nearby

Snow Depth

Station Depth Elevation
No new snow has been reported.

Earthquake Activity

City Distance Mag. Time & Date
No recent earthquake activity has been reported nearby.
Minimum magnitude displayed is 2.5.

Coastal Water Temperatures

Place Temperature
No Stations Reporting

Nearby Weather Stations